map of BND home
BND - Airport
Location
City:  Bandar Abbas, Hormozgan, Iran
Name:Bandar Abbas International Airport
ICAO:OIKB
IATA:BND

Details
Type:Airport (Aerodrome, Airfield)
Use:Public/Civil, Military, International (customs port of entry)
Latitude:2713'06"N (27.218317)
Longitude:5622'40"E (56.377850)
Datum:WGS 1984
Elevation:22 ft (7 m)
Variation:2.36E (WMM2015 magnetic declination)
0.05 annual change
Runways:2
Longest:12008 × 148 ft (3660 × 45 m), paved

Time
Time Zone:UTC+3:30 (DST+4:30)
Local Time:

Weather
METAR:OIKB 192200Z 35004KT CAVOK 24/20 Q1013 A2993
TAF:OIKB 191730Z 1918/2024 22003MPS 7000 FEW035
TEMPO 2001/2005 4000 HZ
TEMPO 2009/2015 17007MPS

Related Locations
Nearby:
Farthest:GMR: 11684 mi / 18804 km
Mangareva [Totegegie], Gambier Islands, PF

Find:

   beyond  
but within

Other Information
Maps:
NOTAMs:
Links:
Sources:

  
  • flag of Iran
  

Sectional Chart

Flight Planning
at skyvector.com

Satellite Image

Google Maps Satellite view

 

Copyright © 2004-2018 Karl L. Swartz. All rights reserved.
The Great Circle Mapper name and logo are trademarks of the Great Circle Mapper.
All other trademarks mentioned herein belong to their respective owners.
Please see credits for attibutions and further copyright information.

  Follow gcmap on Facebook Follow gcmap on Twitter Follow gcmap on Google+ GCmap on LinkedIn

hCard Microformat

Geo Microformat